Time;durP1;ratioP1;P1;durP2;ratioP2;P2;SDS_P1;SDS_P2;PMS_P1;PMS_P2;Temp;Humidity;BMP_temperature;BMP_pressure;BME280_temperature;BME280_humidity;BME280_pressure;Samples;Min_cycle;Max_cycle;Signal;HPM_P1;HPM_P2
2021/05/28 00:00:33;;;;;;;600.65;58.53;;;;;;;17.07;85.33;99143.78;5059945;28;20044;-70
2021/05/28 00:02:59;;;;;;;919.95;66.63;;;;;;;17.03;85.40;99143.38;5093441;28;20431;-70
2021/05/28 00:05:25;;;;;;;1169.78;73.78;;;;;;;16.99;85.65;99152.88;5076421;28;20044;-70
2021/05/28 00:07:51;;;;;;;1131.07;70.35;;;;;;;16.94;85.64;99157.22;5076072;28;20522;-71
2021/05/28 00:10:17;;;;;;;1196.63;75.10;;;;;;;16.81;85.77;99140.13;5059607;28;20093;-71
2021/05/28 00:12:43;;;;;;;1468.00;82.32;;;;;;;16.80;86.05;99133.09;5059965;28;20048;-71
2021/05/28 00:15:11;;;;;;;1178.25;75.90;;;;;;;16.79;86.25;99150.25;5076259;28;20044;-71
2021/05/28 00:17:37;;;;;;;1017.95;69.43;;;;;;;16.73;86.33;99132.31;5076029;28;20088;-71
2021/05/28 00:20:09;;;;;;;851.22;65.63;;;;;;;16.55;86.66;99113.38;5092895;28;20040;-71
2021/05/28 00:22:35;;;;;;;725.95;61.38;;;;;;;16.66;86.62;99125.31;5093693;28;20040;-70
2021/05/28 00:25:00;;;;;;;1076.10;74.70;;;;;;;16.61;86.55;99125.13;5075687;28;20044;-71
2021/05/28 00:27:30;;;;;;;1445.88;75.68;;;;;;;16.57;86.96;99127.41;5088359;28;20166;-73
2021/05/28 00:30:06;;;;;;;945.88;68.28;;;;;;;16.52;86.82;99124.53;5076181;28;20054;-71
2021/05/28 00:32:33;;;;;;;1174.85;78.95;;;;;;;16.47;87.06;99123.47;5053285;28;20047;-70
2021/05/28 00:34:59;;;;;;;1410.20;85.05;;;;;;;16.45;87.02;99117.53;5074942;28;20082;-71
2021/05/28 00:37:25;;;;;;;1130.93;80.28;;;;;;;16.41;87.17;99127.78;5057419;28;20083;-70
2021/05/28 00:39:51;;;;;;;987.83;80.97;;;;;;;16.35;87.38;99125.94;5057164;28;20136;-71
2021/05/28 00:42:16;;;;;;;1024.03;69.57;;;;;;;16.31;87.11;99132.72;5057962;28;20112;-75
2021/05/28 00:44:43;;;;;;;1107.72;75.05;;;;;;;16.26;87.45;99135.22;5057338;28;20050;-73
2021/05/28 00:47:09;;;;;;;1408.25;79.00;;;;;;;16.11;87.26;99120.38;5073687;28;20122;-71
2021/05/28 00:49:35;;;;;;;1497.85;89.35;;;;;;;16.07;87.33;99140.56;5094232;28;20545;-70
2021/05/28 00:52:02;;;;;;;1129.07;73.35;;;;;;;15.99;87.44;99130.88;5078477;28;20039;-71
2021/05/28 00:54:28;;;;;;;1211.05;78.10;;;;;;;15.85;87.45;99115.81;5095539;28;20429;-70
2021/05/28 00:56:54;;;;;;;982.17;63.38;;;;;;;15.89;87.59;99122.41;5095133;28;20411;-71
2021/05/28 00:59:21;;;;;;;774.53;55.33;;;;;;;15.54;87.46;99074.59;5077783;28;20588;-72
2021/05/28 01:01:47;;;;;;;1210.68;75.75;;;;;;;15.77;87.62;99147.31;5078057;28;20051;-71
2021/05/28 01:04:13;;;;;;;894.60;71.53;;;;;;;15.66;87.91;99143.38;5077242;28;20036;-71
2021/05/28 01:06:39;;;;;;;786.45;75.10;;;;;;;15.63;88.07;99142.97;5060869;28;20510;-69
2021/05/28 01:09:06;;;;;;;928.55;73.38;;;;;;;15.57;88.21;99144.59;5111242;28;20568;-70
2021/05/28 01:11:32;;;;;;;1005.63;73.00;;;;;;;15.55;88.27;99141.28;5111146;28;20052;-70
2021/05/28 01:13:59;;;;;;;1191.07;79.90;;;;;;;15.50;88.19;99130.34;5074418;28;20044;-70
2021/05/28 01:16:25;;;;;;;1446.90;95.25;;;;;;;15.54;88.57;99136.16;5092263;28;20051;-70
2021/05/28 01:18:51;;;;;;;1294.00;84.40;;;;;;;15.51;88.65;99134.72;5074551;28;20495;-71
2021/05/28 01:21:17;;;;;;;1218.30;92.50;;;;;;;15.44;88.76;99122.34;5092108;28;20100;-70
2021/05/28 01:23:43;;;;;;;928.67;73.80;;;;;;;15.48;88.80;99118.22;5108268;28;20044;-71
2021/05/28 01:26:09;;;;;;;1137.32;80.97;;;;;;;15.49;88.64;99110.00;5091791;28;20066;-70
2021/05/28 01:28:35;;;;;;;1503.97;101.38;;;;;;;15.48;88.63;99118.22;5059949;28;20562;-70
2021/05/28 01:31:01;;;;;;;860.08;76.68;;;;;;;15.47;88.70;99121.94;5088089;28;20456;-71
2021/05/28 01:33:27;;;;;;;1059.68;86.75;;;;;;;15.49;88.93;99128.72;5075483;28;20469;-69
2021/05/28 01:35:56;;;;;;;953.33;82.55;;;;;;;15.51;89.01;99124.00;5075677;28;20044;-70
2021/05/28 01:38:23;;;;;;;1163.93;80.65;;;;;;;15.54;89.11;99120.91;5092691;28;20327;-71
2021/05/28 01:40:49;;;;;;;957.83;77.95;;;;;;;15.56;88.98;99126.06;5075674;28;20043;-70
2021/05/28 01:43:15;;;;;;;794.13;69.25;;;;;;;15.61;88.84;99129.78;5075493;28;20040;-70
2021/05/28 01:45:41;;;;;;;794.00;65.57;;;;;;;15.66;88.84;99138.03;5058618;28;20054;-71
2021/05/28 01:48:07;;;;;;;1213.93;82.43;;;;;;;15.66;88.66;99143.38;5060878;28;20039;-70
2021/05/28 01:50:45;;;;;;;1000.22;86.20;;;;;;;15.66;88.70;99132.69;5094746;28;20511;-70
2021/05/28 01:53:22;;;;;;;927.95;74.03;;;;;;;15.71;88.49;99124.03;5096611;28;20051;-70
2021/05/28 01:55:49;;;;;;;1017.75;76.82;;;;;;;15.67;88.51;99114.78;5094894;28;20039;-71
2021/05/28 01:58:18;;;;;;;1316.00;85.00;;;;;;;15.75;88.46;99123.44;5094466;28;20487;-70
2021/05/28 02:00:48;;;;;;;1289.10;86.47;;;;;;;15.75;88.40;99125.28;5059995;28;20040;-71
2021/05/28 02:03:18;;;;;;;737.88;61.20;;;;;;;15.78;88.28;99124.88;5077951;28;20043;-71
2021/05/28 02:05:45;;;;;;;940.38;71.38;;;;;;;15.71;88.32;99118.69;5112460;28;20503;-70
2021/05/28 02:08:11;;;;;;;905.67;66.00;;;;;;;15.80;88.28;99138.88;5112440;28;20044;-71
2021/05/28 02:10:36;;;;;;;802.22;67.43;;;;;;;15.82;88.20;99132.28;5060686;28;20051;-70
2021/05/28 02:13:03;;;;;;;1073.03;83.93;;;;;;;15.76;88.01;99113.56;5077371;28;20571;-70
2021/05/28 02:15:29;;;;;;;588.08;60.70;;;;;;;15.84;88.16;99121.38;5094343;28;20572;-70
2021/05/28 02:17:55;;;;;;;929.83;73.93;;;;;;;15.87;88.09;99119.13;5110930;28;20048;-70
2021/05/28 02:20:22;;;;;;;315.20;51.25;;;;;;;15.93;88.22;99123.66;5111250;28;20069;-71
2021/05/28 02:22:48;;;;;;;554.15;62.08;;;;;;;15.97;88.05;99127.59;5111364;28;20047;-70
2021/05/28 02:25:13;;;;;;;535.85;62.25;;;;;;;16.00;88.16;99129.84;5076940;28;20042;-70
2021/05/28 02:27:42;;;;;;;376.27;54.63;;;;;;;16.03;87.84;99126.78;5060538;28;20047;-70
2021/05/28 02:30:08;;;;;;;397.65;51.97;;;;;;;16.07;87.25;99119.13;5110887;28;20040;-70
2021/05/28 02:32:35;;;;;;;213.60;56.85;;;;;;;16.13;87.54;99104.94;5093943;28;20089;-70
2021/05/28 02:35:01;;;;;;;1104.35;78.53;;;;;;;16.25;87.37;99104.09;5110750;28;20074;-70
2021/05/28 02:37:28;;;;;;;632.85;57.55;;;;;;;16.27;87.03;99102.03;5110771;28;20067;-70
2021/05/28 02:39:55;;;;;;;216.88;47.03;;;;;;;16.37;86.99;99109.66;5110789;28;20455;-70
2021/05/28 02:42:20;;;;;;;139.38;42.85;;;;;;;16.46;86.75;99106.59;5093773;28;20043;-70
2021/05/28 02:44:46;;;;;;;529.13;57.20;;;;;;;16.49;86.53;99098.13;5060175;28;20502;-70
2021/05/28 02:47:12;;;;;;;116.05;40.88;;;;;;;16.56;86.25;99103.47;5060096;28;20081;-70
2021/05/28 02:49:38;;;;;;;637.30;53.92;;;;;;;16.62;85.74;99111.50;5110591;28;20130;-70
2021/05/28 02:52:04;;;;;;;1030.55;88.90;;;;;;;16.63;85.40;99113.16;5076771;28;20042;-70
2021/05/28 02:54:31;;;;;;;671.55;57.20;;;;;;;16.63;85.41;99110.47;5076248;28;20042;-71
2021/05/28 02:56:56;;;;;;;462.30;53.95;;;;;;;16.64;85.45;99111.28;5092750;28;20423;-71
2021/05/28 02:59:22;;;;;;;502.40;50.03;;;;;;;16.65;85.60;99108.41;5076901;28;20043;-71
2021/05/28 03:01:49;;;;;;;287.23;42.03;;;;;;;16.72;85.38;99113.75;5076351;28;20073;-73
2021/05/28 03:04:15;;;;;;;65.55;34.03;;;;;;;16.82;85.72;99104.22;5088113;28;20051;-70
2021/05/28 03:06:41;;;;;;;49.38;29.15;;;;;;;17.29;84.59;99105.72;5090842;28;20079;-74
2021/05/28 03:09:07;;;;;;;35.80;24.80;;;;;;;17.73;82.94;99107.56;5096039;28;20070;-71
2021/05/28 03:11:33;;;;;;;37.83;26.02;;;;;;;18.11;81.22;99116.41;5054453;28;20123;-71
2021/05/28 03:14:01;;;;;;;37.83;23.77;;;;;;;18.41;79.51;99098.59;5055555;28;20044;-71
2021/05/28 03:16:27;;;;;;;35.92;23.45;;;;;;;18.68;78.20;99101.84;5038378;28;20043;-71
2021/05/28 03:18:56;;;;;;;60.97;28.50;;;;;;;19.12;76.24;99109.63;5088939;28;20135;-72
2021/05/28 03:23:59;;;;;;;33.90;23.83;;;;;;;19.60;73.10;99092.44;5073061;28;20048;-72
2021/05/28 03:26:26;;;;;;;41.85;24.85;;;;;;;19.94;71.97;99099.81;5072001;28;20044;-76
2021/05/28 03:28:53;;;;;;;36.67;24.15;;;;;;;20.11;71.03;99103.47;5088938;28;20571;-73
2021/05/28 03:31:20;;;;;;;38.58;26.33;;;;;;;20.04;70.94;99100.06;5071979;28;20040;-72
2021/05/28 03:33:46;;;;;;;44.50;28.33;;;;;;;19.78;71.94;99107.72;5055223;28;20073;-72
2021/05/28 03:36:15;;;;;;;110.40;29.38;;;;;;;19.39;72.90;99113.69;5054050;28;20539;-72
2021/05/28 03:38:42;;;;;;;63.17;29.08;;;;;;;18.93;74.51;99106.13;5071677;28;20502;-71
2021/05/28 03:41:08;;;;;;;302.35;37.40;;;;;;;18.52;75.96;99102.41;5055319;28;20051;-71
2021/05/28 03:43:35;;;;;;;115.28;33.80;;;;;;;18.12;77.26;99110.81;5055034;28;20052;-72
2021/05/28 03:46:02;;;;;;;48.92;32.13;;;;;;;17.94;78.37;99116.09;5071750;28;20580;-71
2021/05/28 03:48:28;;;;;;;62.55;35.75;;;;;;;17.74;79.22;99120.81;5055211;28;20040;-71
2021/05/28 03:50:54;;;;;;;57.30;34.42;;;;;;;17.66;79.49;99117.53;5059362;28;20568;-71
2021/05/28 03:53:20;;;;;;;100.95;35.35;;;;;;;17.57;80.21;99127.72;5071804;28;20158;-73
2021/05/28 03:55:47;;;;;;;63.22;36.97;;;;;;;17.39;80.71;99124.06;5055874;28;20039;-72
2021/05/28 03:58:13;;;;;;;64.80;36.80;;;;;;;17.32;81.24;99126.75;5055170;28;20063;-74
2021/05/28 04:00:39;;;;;;;59.45;36.88;;;;;;;17.21;81.67;99124.75;5055238;28;20047;-72
2021/05/28 04:03:05;;;;;;;70.95;39.63;;;;;;;17.15;82.00;99133.66;5060311;28;20047;-70
2021/05/28 04:05:32;;;;;;;109.68;41.25;;;;;;;17.05;82.36;99129.75;5091514;28;20040;-71
2021/05/28 04:07:58;;;;;;;280.50;51.53;;;;;;;16.98;83.06;99134.31;5075506;28;20039;-71
2021/05/28 04:10:24;;;;;;;82.85;44.13;;;;;;;16.88;83.79;99135.56;5109054;28;20403;-71
2021/05/28 04:12:53;;;;;;;98.20;42.78;;;;;;;16.72;83.92;99117.25;5089875;28;20043;-71
2021/05/28 04:15:19;;;;;;;133.68;45.85;;;;;;;16.71;84.42;99134.38;5089651;28;20131;-71
2021/05/28 04:17:44;;;;;;;116.65;46.53;;;;;;;16.65;84.54;99137.88;5088844;28;20142;-71
2021/05/28 04:20:12;;;;;;;108.25;45.10;;;;;;;16.51;85.04;99132.78;5054880;28;20507;-70
2021/05/28 04:22:37;;;;;;;110.05;48.85;;;;;;;16.48;85.14;99150.06;5106248;28;20039;-71
2021/05/28 04:25:04;;;;;;;98.38;47.47;;;;;;;16.42;85.66;99145.50;5075119;28;20572;-70
2021/05/28 04:27:30;;;;;;;95.28;45.20;;;;;;;16.36;85.95;99150.91;5093284;28;20079;-70
2021/05/28 04:29:56;;;;;;;191.90;55.80;;;;;;;16.20;86.01;99143.25;5095350;28;20116;-70
2021/05/28 04:32:21;;;;;;;233.70;58.22;;;;;;;16.21;86.47;99151.09;5078875;28;20085;-70
2021/05/28 04:34:47;;;;;;;144.43;54.30;;;;;;;16.17;86.71;99152.53;5095571;28;20457;-70
2021/05/28 04:37:13;;;;;;;110.10;49.75;;;;;;;16.15;87.00;99149.22;5078532;28;20043;-70
2021/05/28 04:39:39;;;;;;;151.20;57.78;;;;;;;16.18;87.23;99140.78;5078500;28;20525;-70
2021/05/28 04:42:05;;;;;;;188.63;58.05;;;;;;;16.22;87.34;99139.31;5078597;28;20047;-71
2021/05/28 04:44:31;;;;;;;88.60;44.22;;;;;;;16.29;87.33;99140.19;5112194;28;20051;-71
2021/05/28 04:46:57;;;;;;;89.80;44.90;;;;;;;16.29;87.20;99136.66;5095456;28;20104;-71
2021/05/28 04:49:24;;;;;;;94.70;46.70;;;;;;;16.32;87.06;99136.25;5095290;28;20036;-71
2021/05/28 04:51:50;;;;;;;88.35;43.80;;;;;;;16.36;86.84;99134.81;5112219;28;20051;-71
2021/05/28 04:54:16;;;;;;;109.50;48.80;;;;;;;16.40;86.66;99125.31;5078250;28;20043;-70
2021/05/28 04:56:42;;;;;;;99.40;46.03;;;;;;;16.47;86.64;99128.84;5094812;28;20054;-70
2021/05/28 04:59:08;;;;;;;90.68;42.75;;;;;;;16.42;86.56;99113.34;5111961;28;20485;-70
2021/05/28 05:01:34;;;;;;;130.18;50.10;;;;;;;16.53;86.49;99126.16;5094782;28;20098;-70
2021/05/28 05:04:00;;;;;;;88.05;45.15;;;;;;;16.61;86.20;99125.94;5078142;28;20425;-71
2021/05/28 05:06:27;;;;;;;90.38;44.20;;;;;;;16.62;86.03;99116.84;5078439;28;20118;-71
2021/05/28 05:08:52;;;;;;;81.90;43.80;;;;;;;16.79;85.87;99130.63;5094718;28;20163;-71
2021/05/28 05:11:18;;;;;;;76.45;41.13;;;;;;;16.88;85.39;99138.25;5077705;28;20047;-71
2021/05/28 05:13:44;;;;;;;70.05;38.47;;;;;;;16.97;85.10;99136.19;5077380;28;20043;-71
2021/05/28 05:16:10;;;;;;;89.97;42.58;;;;;;;16.97;84.77;99135.34;5093875;28;20062;-71
2021/05/28 05:18:36;;;;;;;75.70;40.60;;;;;;;16.90;84.76;99134.56;5112101;28;20130;-71
2021/05/28 05:21:01;;;;;;;68.95;38.47;;;;;;;16.91;84.94;99146.94;5077439;28;20058;-71
2021/05/28 05:23:27;;;;;;;65.57;39.97;;;;;;;16.94;84.64;99146.50;5081544;28;20082;-71
2021/05/28 05:25:53;;;;;;;71.88;40.35;;;;;;;16.92;84.71;99146.72;5048140;28;20052;-72
2021/05/28 05:28:19;;;;;;;75.00;41.30;;;;;;;16.91;84.80;99141.56;5045365;28;20040;-71
2021/05/28 05:30:45;;;;;;;80.82;42.22;;;;;;;16.95;84.82;99142.78;5064355;28;20040;-71
2021/05/28 05:33:11;;;;;;;74.85;43.88;;;;;;;16.98;84.75;99131.63;5055247;28;20051;-71
2021/05/28 05:35:37;;;;;;;70.60;41.40;;;;;;;17.01;84.71;99124.00;5078253;28;20091;-71
2021/05/28 05:38:07;;;;;;;63.95;38.63;;;;;;;17.04;84.95;99107.47;5047946;28;20044;-72
2021/05/28 05:40:36;;;;;;;57.28;37.03;;;;;;;17.28;84.79;99112.13;5078055;28;20512;-71
2021/05/28 05:43:03;;;;;;;46.72;33.28;;;;;;;17.50;84.38;99107.28;5064312;28;20048;-71
2021/05/28 05:45:28;;;;;;;46.05;31.50;;;;;;;17.67;83.12;99109.25;5047861;28;20055;-71
2021/05/28 05:47:54;;;;;;;54.08;34.92;;;;;;;17.81;82.08;99113.50;5045015;28;20040;-71
2021/05/28 05:50:20;;;;;;;47.33;34.05;;;;;;;17.87;81.65;99122.53;5047505;28;20044;-72
2021/05/28 05:52:46;;;;;;;50.47;33.88;;;;;;;17.85;81.46;99122.75;5053906;28;20064;-71
2021/05/28 05:55:12;;;;;;;49.60;34.15;;;;;;;17.85;81.54;99114.72;5030787;28;20051;-71
2021/05/28 05:57:38;;;;;;;44.75;31.48;;;;;;;17.92;81.75;99118.19;5028023;28;20063;-71
2021/05/28 06:00:05;;;;;;;51.95;34.08;;;;;;;17.99;81.44;99116.25;5030768;28;20127;-71
2021/05/28 06:02:32;;;;;;;51.50;32.97;;;;;;;18.04;80.92;99108.38;5079054;28;20416;-72
2021/05/28 06:04:58;;;;;;;44.85;33.35;;;;;;;18.15;80.57;99118.44;5063560;28;20051;-70
2021/05/28 06:07:24;;;;;;;44.83;32.45;;;;;;;18.25;80.17;99116.06;5030628;28;20033;-72
2021/05/28 06:09:49;;;;;;;41.05;30.55;;;;;;;18.40;79.47;99105.00;5063915;28;20530;-73
2021/05/28 06:12:15;;;;;;;41.92;32.17;;;;;;;18.59;79.28;99103.19;5037961;28;20036;-72
2021/05/28 06:14:41;;;;;;;41.92;29.05;;;;;;;18.77;78.84;99089.75;5066906;28;20115;-71
2021/05/28 06:17:07;;;;;;;39.67;29.50;;;;;;;19.06;77.91;99105.16;5078509;28;20064;-72
2021/05/28 06:19:32;;;;;;;41.63;29.27;;;;;;;19.28;76.90;99098.28;5053455;28;20146;-72
2021/05/28 06:21:58;;;;;;;36.55;26.92;;;;;;;19.47;76.49;99099.88;5043721;28;20049;-72
2021/05/28 06:24:24;;;;;;;36.63;27.33;;;;;;;19.71;75.58;99091.66;5080066;28;20043;-71
2021/05/28 06:26:50;;;;;;;33.53;25.50;;;;;;;19.99;74.60;99094.56;5047323;28;20051;-71
2021/05/28 06:29:16;;;;;;;32.83;26.38;;;;;;;20.23;72.83;99091.94;5077248;28;20044;-71
2021/05/28 06:31:42;;;;;;;32.53;25.48;;;;;;;20.46;72.50;99092.78;5062199;28;20036;-72
2021/05/28 06:34:08;;;;;;;32.53;25.17;;;;;;;20.65;71.77;99094.28;5045613;28;20146;-71
2021/05/28 06:36:34;;;;;;;32.63;26.08;;;;;;;20.74;71.10;99100.16;5063157;28;21078;-72
2021/05/28 06:38:59;;;;;;;35.28;25.70;;;;;;;20.78;70.75;99085.13;5049987;28;20078;-71
2021/05/28 06:41:25;;;;;;;28.38;23.75;;;;;;;21.11;70.36;99091.53;5030110;28;20040;-71
2021/05/28 06:43:51;;;;;;;29.70;23.77;;;;;;;21.52;69.10;99098.59;5077681;28;20100;-71
2021/05/28 06:46:18;;;;;;;32.50;24.95;;;;;;;22.01;67.16;99100.59;5065210;28;20044;-71
2021/05/28 06:48:44;;;;;;;29.73;23.67;;;;;;;22.30;66.35;99091.34;5044906;28;20511;-71
2021/05/28 06:51:10;;;;;;;29.20;24.05;;;;;;;22.47;65.79;99086.75;5037110;28;20048;-71
2021/05/28 06:53:36;;;;;;;31.95;25.73;;;;;;;22.70;65.23;99085.75;5077274;28;20459;-71
2021/05/28 06:56:03;;;;;;;28.33;20.88;;;;;;;23.09;64.04;99090.88;5052275;28;20047;-72
2021/05/28 06:58:29;;;;;;;27.27;20.90;;;;;;;23.35;63.38;99094.78;5046238;28;20131;-71
2021/05/28 07:00:56;;;;;;;24.50;21.58;;;;;;;23.61;62.19;99085.03;5063393;28;20047;-72
2021/05/28 07:03:22;;;;;;;29.15;20.73;;;;;;;23.87;61.13;99092.34;5066600;28;20060;-72
2021/05/28 07:05:48;;;;;;;28.33;21.17;;;;;;;23.90;61.11;99089.13;5063281;28;20910;-72
2021/05/28 07:08:13;;;;;;;29.52;21.80;;;;;;;24.10;60.33;99095.59;5037273;28;20048;-72
2021/05/28 07:10:39;;;;;;;27.98;20.92;;;;;;;24.31;59.83;99099.31;5060095;28;20066;-71
2021/05/28 07:13:05;;;;;;;24.58;19.65;;;;;;;24.29;59.44;99098.72;5062794;28;20127;-72
2021/05/28 07:15:31;;;;;;;27.63;21.20;;;;;;;24.16;60.00;99099.97;5062860;28;20051;-71
2021/05/28 07:17:57;;;;;;;25.92;21.40;;;;;;;24.31;59.53;99096.59;5045833;28;20052;-72
2021/05/28 07:20:23;;;;;;;20.85;15.90;;;;;;;24.92;58.27;99095.94;5028056;28;20040;-71
2021/05/28 07:22:49;;;;;;;21.08;16.58;;;;;;;25.74;56.32;99093.31;5046206;28;20093;-72
2021/05/28 07:25:18;;;;;;;17.70;15.30;;;;;;;26.56;52.59;99091.16;5045681;28;20039;-71
2021/05/28 07:27:43;;;;;;;19.70;15.15;;;;;;;27.41;50.46;99090.16;5060638;28;20131;-72
2021/05/28 07:30:10;;;;;;;18.75;14.88;;;;;;;28.29;47.14;99096.44;5052163;28;20072;-72
2021/05/28 07:32:37;;;;;;;17.25;15.55;;;;;;;28.59;45.93;99088.81;5064024;28;20070;-72
2021/05/28 07:35:03;;;;;;;21.85;14.35;;;;;;;28.60;46.19;99079.50;5077246;28;20074;-72
2021/05/28 07:37:29;;;;;;;15.85;13.40;;;;;;;28.96;45.49;99091.72;5077379;28;20096;-73
2021/05/28 07:39:55;;;;;;;15.10;12.88;;;;;;;29.18;44.35;99094.78;5063579;28;20103;-73
2021/05/28 07:42:21;;;;;;;21.23;15.25;;;;;;;29.13;44.59;99086.63;5062529;28;20436;-73
2021/05/28 07:44:48;;;;;;;12.73;10.63;;;;;;;28.95;43.44;99081.91;5061245;28;20041;-72
2021/05/28 07:47:14;;;;;;;10.93;8.68;;;;;;;28.75;42.28;99082.13;5077003;28;20417;-72
2021/05/28 07:49:41;;;;;;;11.20;8.60;;;;;;;28.69;42.26;99085.97;5047567;28;20127;-73
2021/05/28 07:52:08;;;;;;;10.45;8.60;;;;;;;29.36;40.65;99095.91;5049598;28;20044;-73
2021/05/28 07:54:34;;;;;;;12.02;7.97;;;;;;;30.49;38.44;99096.44;5077050;28;20119;-72
2021/05/28 07:57:01;;;;;;;10.20;7.93;;;;;;;31.13;37.18;99096.41;5063893;28;20054;-72
2021/05/28 07:59:26;;;;;;;10.95;8.18;;;;;;;31.12;37.58;99089.25;5077925;28;20040;-72
2021/05/28 08:01:52;;;;;;;15.73;9.75;;;;;;;30.54;39.04;99085.41;5072729;28;20067;-73
2021/05/28 08:04:18;;;;;;;10.88;9.73;;;;;;;29.88;40.72;99086.72;5072953;28;20047;-73
2021/05/28 08:06:44;;;;;;;16.35;10.13;;;;;;;28.98;42.29;99077.75;5071435;28;20028;-72
2021/05/28 08:09:10;;;;;;;10.80;9.20;;;;;;;28.69;43.19;99083.25;5082697;28;20047;-72
2021/05/28 08:11:35;;;;;;;20.13;9.10;;;;;;;29.52;41.84;99072.72;5066631;28;20376;-72
2021/05/28 08:14:01;;;;;;;11.77;8.15;;;;;;;30.11;40.21;99080.34;5080071;28;20037;-72
2021/05/28 08:16:28;;;;;;;10.07;8.05;;;;;;;31.33;37.55;99067.75;5049388;28;20083;-72
2021/05/28 08:18:54;;;;;;;14.18;7.38;;;;;;;33.85;34.02;99071.06;5066327;28;20520;-72
2021/05/28 08:21:19;;;;;;;10.05;7.00;;;;;;;36.25;30.26;99069.78;5081162;28;20052;-73
2021/05/28 08:23:46;;;;;;;11.10;6.93;;;;;;;38.20;27.48;99065.63;5054938;28;20098;-73
2021/05/28 08:26:12;;;;;;;10.48;6.80;;;;;;;39.19;26.38;99059.97;5055608;28;20036;-73
2021/05/28 08:28:38;;;;;;;7.90;6.25;;;;;;;39.90;24.96;99058.47;5064461;28;20388;-73
2021/05/28 08:31:06;;;;;;;8.35;7.07;;;;;;;40.57;24.11;99062.66;5062819;28;20036;-73
2021/05/28 08:33:33;;;;;;;8.48;6.30;;;;;;;41.83;23.01;99050.03;5049846;28;20127;-73
2021/05/28 08:36:00;;;;;;;6.22;5.60;;;;;;;42.54;22.07;99058.09;5068502;28;20044;-73
2021/05/28 08:38:25;;;;;;;6.30;5.28;;;;;;;43.59;20.77;99052.69;5066978;28;20044;-74
2021/05/28 08:40:51;;;;;;;10.45;5.60;;;;;;;44.37;19.62;99054.66;5050585;28;20072;-76
2021/05/28 08:43:17;;;;;;;9.27;4.85;;;;;;;44.60;19.30;99043.91;5079953;28;20035;-74
2021/05/28 08:45:45;;;;;;;7.55;4.82;;;;;;;44.82;18.69;99047.56;5048128;28;20465;-75
2021/05/28 08:48:14;;;;;;;6.78;4.43;;;;;;;44.89;18.66;99041.16;5080336;28;20499;-74
2021/05/28 08:50:41;;;;;;;6.57;4.57;;;;;;;44.35;19.13;99045.03;5079347;28;20755;-74
2021/05/28 08:53:09;;;;;;;5.43;4.28;;;;;;;44.51;18.52;99037.09;5049478;28;20047;-75
2021/05/28 08:55:36;;;;;;;6.68;4.30;;;;;;;44.44;18.53;99043.47;5065646;28;20068;-75
2021/05/28 08:58:06;;;;;;;7.90;4.07;;;;;;;45.06;17.75;99035.56;5048179;28;20040;-74
2021/05/28 09:00:32;;;;;;;7.30;3.97;;;;;;;43.00;19.46;99036.19;5080200;28;20036;-74
2021/05/28 09:03:20;;;;;;;5.55;4.30;;;;;;;41.72;20.36;99029.53;5079809;28;20048;-74
2021/05/28 09:05:47;;;;;;;13.95;3.95;;;;;;;39.25;22.91;99028.78;5079693;28;20050;-74
2021/05/28 09:08:13;;;;;;;6.63;3.97;;;;;;;36.66;25.12;99016.34;5055363;28;20094;-74
2021/05/28 09:10:40;;;;;;;7.38;3.72;;;;;;;36.82;25.38;99022.81;5055541;28;20044;-74
2021/05/28 09:13:10;;;;;;;4.53;3.80;;;;;;;38.04;23.38;99014.00;5080219;28;20123;-74
2021/05/28 09:15:36;;;;;;;7.80;3.40;;;;;;;37.50;23.77;99015.53;5081010;28;20150;-74
2021/05/28 09:18:02;;;;;;;6.65;3.80;;;;;;;36.30;25.47;99017.06;5066578;28;20142;-74
2021/05/28 09:20:28;;;;;;;5.50;3.85;;;;;;;35.15;27.22;99010.59;5068799;28;20044;-73
2021/05/28 09:23:14;;;;;;;7.28;4.32;;;;;;;35.46;27.12;99011.06;5055489;28;20224;-74
2021/05/28 09:26:09;;;;;;;11.93;4.25;;;;;;;36.42;26.03;99019.03;5066022;28;20055;-74
2021/05/28 09:28:43;;;;;;;10.00;4.85;;;;;;;36.03;25.97;99011.28;5027162;28;20059;-74
2021/05/28 09:31:20;;;;;;;4.60;4.20;;;;;;;35.22;27.07;99008.94;5068389;28;20056;-73
2021/05/28 09:34:01;;;;;;;6.13;4.25;;;;;;;34.44;27.95;99006.84;5051359;28;20055;-74
2021/05/28 09:36:28;;;;;;;5.40;4.15;;;;;;;33.71;29.80;99007.03;5062471;28;20124;-73
2021/05/28 09:39:08;;;;;;;4.88;4.10;;;;;;;33.11;30.42;99006.94;5048150;28;20040;-73
2021/05/28 09:41:37;;;;;;;5.75;4.07;;;;;;;33.10;30.13;99010.81;5090005;28;20047;-75
2021/05/28 09:44:12;;;;;;;6.75;3.72;;;;;;;32.49;29.76;99008.16;5074261;28;20100;-74
2021/05/28 09:46:59;;;;;;;4.70;4.03;;;;;;;31.87;30.14;99000.91;5074097;28;20047;-75
2021/05/28 09:49:30;;;;;;;5.68;4.07;;;;;;;31.55;31.21;99006.59;5074177;28;20443;-76
2021/05/28 09:52:02;;;;;;;5.13;4.32;;;;;;;30.64;34.18;99000.25;5057633;28;20052;-79
2021/05/28 09:54:28;;;;;;;7.22;4.22;;;;;;;29.77;34.72;98990.25;5073989;28;20491;-76
2021/05/28 09:56:54;;;;;;;7.40;4.95;;;;;;;29.13;35.79;99001.03;5073809;28;20055;-75
2021/05/28 09:59:20;;;;;;;11.07;5.13;;;;;;;28.69;37.41;98995.78;5073535;28;20553;-76
2021/05/28 10:01:59;;;;;;;8.10;5.85;;;;;;;28.22;38.23;99005.81;5073650;28;20040;-75
2021/05/28 10:04:25;;;;;;;6.93;5.47;;;;;;;27.69;39.03;98988.50;5090711;28;20511;-74
2021/05/28 10:06:53;;;;;;;8.23;6.22;;;;;;;27.29;40.83;98997.75;5069474;28;20046;-77
2021/05/28 10:09:19;;;;;;;8.52;5.38;;;;;;;26.52;40.78;98993.94;5045846;28;20507;-75
2021/05/28 10:11:45;;;;;;;9.02;6.20;;;;;;;26.30;42.39;98995.09;5049107;28;20122;-77
2021/05/28 10:14:12;;;;;;;11.55;6.35;;;;;;;26.18;43.76;98994.56;5054212;28;20127;-76
2021/05/28 10:16:38;;;;;;;7.28;6.53;;;;;;;26.00;43.92;98983.41;5031342;28;20059;-75
2021/05/28 10:19:04;;;;;;;9.80;6.90;;;;;;;26.09;43.05;99000.81;5068657;28;20399;-76
2021/05/28 10:21:30;;;;;;;7.15;5.50;;;;;;;26.07;43.06;98992.13;5048588;28;20117;-73
2021/05/28 10:23:58;;;;;;;6.95;5.60;;;;;;;25.87;43.70;98989.38;5072500;28;20135;-73
2021/05/28 10:26:27;;;;;;;8.75;6.20;;;;;;;25.59;43.81;98993.44;5071140;28;20052;-72
2021/05/28 10:28:53;;;;;;;8.82;6.47;;;;;;;25.51;44.42;98995.88;5089483;28;20046;-74
2021/05/28 10:31:19;;;;;;;13.18;7.10;;;;;;;25.34;45.17;98992.59;5081098;28;20416;-74
2021/05/28 10:33:53;;;;;;;9.35;6.53;;;;;;;25.13;45.45;98986.25;5046513;28;20465;-74
2021/05/28 10:36:45;;;;;;;8.02;6.80;;;;;;;25.06;45.71;98998.44;5069100;28;20043;-80
2021/05/28 10:39:14;;;;;;;11.85;8.80;;;;;;;24.72;46.75;98981.75;5035953;28;20079;-72
2021/05/28 10:41:43;;;;;;;9.75;7.18;;;;;;;24.69;46.76;98996.66;5069224;28;20127;-74
2021/05/28 10:44:14;;;;;;;13.38;7.40;;;;;;;24.38;47.46;98975.03;5052313;28;20792;-76
2021/05/28 10:46:56;;;;;;;9.88;6.30;;;;;;;24.35;47.77;99002.69;5069095;28;20064;-73
2021/05/28 10:49:52;;;;;;;9.70;6.70;;;;;;;24.10;47.96;98994.38;5035705;28;20071;-73
2021/05/28 10:52:32;;;;;;;9.90;6.72;;;;;;;23.82;48.98;98992.75;5068770;28;20093;-73
2021/05/28 10:55:01;;;;;;;7.07;6.37;;;;;;;23.53;50.17;98977.88;5057499;28;20099;-74
2021/05/28 10:57:34;;;;;;;8.15;7.22;;;;;;;23.52;51.07;98994.38;5079668;28;20067;-73
2021/05/28 11:00:09;;;;;;;11.32;7.32;;;;;;;23.48;51.09;98990.56;5076716;28;20066;-73
2021/05/28 11:02:45;;;;;;;9.25;5.65;;;;;;;23.39;49.77;99000.25;5061452;28;20094;-73
2021/05/28 11:05:12;;;;;;;8.70;5.80;;;;;;;23.31;49.72;99006.09;5061418;28;20500;-74
2021/05/28 11:07:43;;;;;;;8.82;5.43;;;;;;;23.26;49.57;98996.03;5058478;28;20504;-74
2021/05/28 11:10:21;;;;;;;13.30;5.32;;;;;;;23.27;49.42;98993.06;5052328;28;20071;-74
2021/05/28 11:12:48;;;;;;;10.45;6.28;;;;;;;23.36;49.79;98989.91;5035498;28;20043;-75
2021/05/28 11:15:16;;;;;;;11.85;6.28;;;;;;;23.42;49.65;98992.38;5071184;28;20044;-74
2021/05/28 11:17:58;;;;;;;9.60;5.75;;;;;;;23.40;49.15;98977.47;5088947;28;20087;-73
2021/05/28 11:20:33;;;;;;;9.63;5.35;;;;;;;23.42;48.04;98984.25;5089119;28;20079;-74